Ah Gwah Ching, Minnesota
Current Conditions -  °F | °C
As of 2:15 AM on Saturday 29 Nov 2014 (Local Time) from KY49 Reporting Station
Overcast Overcast  
Wind Chill: 10°   Ceiling: 900
Heat Index: 18°   Visibility: 7mi
Dew Point: 15°   Wind: 6mph
Humidity: 88%   Direction: 180°S
Pressure: 29.53"   Gusts: NA
Location:  47.08°N, 94.57°W
Report Text: KY49 290815Z AUTO 18005KT 7SM OVC009 M08/M10 A2953 RMK AO2 T10791096
Loading
Personal Weather Stations






























Interactive Weather Map New forecast layout! Learn more

10-Day Weather Forecast

Advertisements
Track Severe Weather on mobile